sensor_id;sensor_type;location;lat;lon;timestamp;pressure;altitude;pressure_sealevel;temperature;humidity
24858;BME280;12935;50.782;6.074;2023-12-22T00:02:22;98210.78;;;7.32;100.00
24858;BME280;12935;50.782;6.074;2023-12-22T00:04:48;98214.97;;;7.40;100.00
24858;BME280;12935;50.782;6.074;2023-12-22T00:07:14;98209.19;;;7.38;100.00
24858;BME280;12935;50.782;6.074;2023-12-22T00:09:39;98222.81;;;7.35;100.00
24858;BME280;12935;50.782;6.074;2023-12-22T00:12:04;98228.28;;;7.31;100.00
24858;BME280;12935;50.782;6.074;2023-12-22T00:14:30;98230.97;;;7.31;100.00
24858;BME280;12935;50.782;6.074;2023-12-22T00:16:55;98236.41;;;7.31;100.00
24858;BME280;12935;50.782;6.074;2023-12-22T00:19:20;98237.94;;;7.36;100.00
24858;BME280;12935;50.782;6.074;2023-12-22T00:21:45;98241.44;;;7.36;100.00
24858;BME280;12935;50.782;6.074;2023-12-22T00:24:11;98240.94;;;7.45;100.00
24858;BME280;12935;50.782;6.074;2023-12-22T00:26:36;98249.06;;;7.49;100.00
24858;BME280;12935;50.782;6.074;2023-12-22T00:29:01;98272.88;;;7.37;100.00
24858;BME280;12935;50.782;6.074;2023-12-22T00:31:26;98286.56;;;7.23;100.00
24858;BME280;12935;50.782;6.074;2023-12-22T00:33:52;98263.88;;;6.96;100.00
24858;BME280;12935;50.782;6.074;2023-12-22T00:36:17;98265.03;;;6.95;100.00
24858;BME280;12935;50.782;6.074;2023-12-22T00:38:43;98251.56;;;6.81;100.00
24858;BME280;12935;50.782;6.074;2023-12-22T00:41:10;98261.72;;;6.73;100.00
24858;BME280;12935;50.782;6.074;2023-12-22T00:43:35;98258.97;;;6.77;100.00
24858;BME280;12935;50.782;6.074;2023-12-22T00:46:00;98265.53;;;6.79;100.00
24858;BME280;12935;50.782;6.074;2023-12-22T00:48:26;98268.63;;;6.81;100.00
24858;BME280;12935;50.782;6.074;2023-12-22T00:50:51;98265.91;;;6.81;100.00
24858;BME280;12935;50.782;6.074;2023-12-22T00:53:16;98286.09;;;6.80;100.00
24858;BME280;12935;50.782;6.074;2023-12-22T00:55:41;98301.19;;;6.81;100.00
24858;BME280;12935;50.782;6.074;2023-12-22T00:58:07;98269.78;;;6.80;100.00
24858;BME280;12935;50.782;6.074;2023-12-22T01:00:32;98285.78;;;6.64;100.00
24858;BME280;12935;50.782;6.074;2023-12-22T01:02:57;98297.09;;;6.52;100.00
24858;BME280;12935;50.782;6.074;2023-12-22T01:05:22;98312.66;;;6.41;100.00
24858;BME280;12935;50.782;6.074;2023-12-22T01:07:48;98315.44;;;6.26;100.00
24858;BME280;12935;50.782;6.074;2023-12-22T01:10:13;98292.53;;;6.31;100.00
24858;BME280;12935;50.782;6.074;2023-12-22T01:12:38;98294.53;;;6.20;100.00
24858;BME280;12935;50.782;6.074;2023-12-22T01:15:04;98262.81;;;6.13;100.00
24858;BME280;12935;50.782;6.074;2023-12-22T01:17:29;98294.16;;;6.14;100.00
24858;BME280;12935;50.782;6.074;2023-12-22T01:19:55;98285.28;;;6.14;100.00
24858;BME280;12935;50.782;6.074;2023-12-22T01:22:20;98265.50;;;6.17;100.00
24858;BME280;12935;50.782;6.074;2023-12-22T01:24:47;98280.97;;;6.23;100.00
24858;BME280;12935;50.782;6.074;2023-12-22T01:27:13;98324.34;;;6.27;100.00
24858;BME280;12935;50.782;6.074;2023-12-22T01:29:38;98331.00;;;6.12;100.00
24858;BME280;12935;50.782;6.074;2023-12-22T01:32:03;98314.38;;;5.81;100.00
24858;BME280;12935;50.782;6.074;2023-12-22T01:34:29;98316.72;;;5.54;100.00
24858;BME280;12935;50.782;6.074;2023-12-22T01:36:54;98307.44;;;5.55;100.00
24858;BME280;12935;50.782;6.074;2023-12-22T01:39:19;98302.81;;;5.56;100.00
24858;BME280;12935;50.782;6.074;2023-12-22T01:41:45;98307.84;;;5.54;100.00
24858;BME280;12935;50.782;6.074;2023-12-22T01:44:10;98306.69;;;5.37;100.00
24858;BME280;12935;50.782;6.074;2023-12-22T01:46:36;98326.81;;;5.36;100.00
24858;BME280;12935;50.782;6.074;2023-12-22T01:49:01;98330.69;;;5.28;100.00
24858;BME280;12935;50.782;6.074;2023-12-22T01:51:28;98345.75;;;5.22;100.00
24858;BME280;12935;50.782;6.074;2023-12-22T01:53:54;98339.59;;;5.18;100.00
24858;BME280;12935;50.782;6.074;2023-12-22T01:56:20;98331.47;;;5.32;100.00
24858;BME280;12935;50.782;6.074;2023-12-22T01:58:46;98331.84;;;5.41;100.00
24858;BME280;12935;50.782;6.074;2023-12-22T02:01:11;98335.31;;;5.56;100.00
24858;BME280;12935;50.782;6.074;2023-12-22T02:03:37;98326.03;;;5.64;100.00
24858;BME280;12935;50.782;6.074;2023-12-22T02:06:03;98318.25;;;5.73;100.00
24858;BME280;12935;50.782;6.074;2023-12-22T02:08:31;98317.88;;;5.78;100.00
24858;BME280;12935;50.782;6.074;2023-12-22T02:10:57;98329.84;;;5.88;100.00
24858;BME280;12935;50.782;6.074;2023-12-22T02:13:22;98335.28;;;5.95;100.00
24858;BME280;12935;50.782;6.074;2023-12-22T02:16:05;98345.75;;;5.96;100.00
24858;BME280;12935;50.782;6.074;2023-12-22T02:18:36;98356.97;;;5.98;100.00
24858;BME280;12935;50.782;6.074;2023-12-22T02:21:04;98363.53;;;6.01;100.00
24858;BME280;12935;50.782;6.074;2023-12-22T02:23:29;98362.00;;;6.00;100.00
24858;BME280;12935;50.782;6.074;2023-12-22T02:26:14;98339.56;;;5.92;100.00
24858;BME280;12935;50.782;6.074;2023-12-22T02:28:45;98348.44;;;6.00;100.00
24858;BME280;12935;50.782;6.074;2023-12-22T02:31:24;98350.38;;;6.03;100.00
24858;BME280;12935;50.782;6.074;2023-12-22T02:33:52;98340.31;;;6.04;100.00
24858;BME280;12935;50.782;6.074;2023-12-22T02:36:20;98337.59;;;6.04;100.00
24858;BME280;12935;50.782;6.074;2023-12-22T02:38:47;98330.22;;;6.08;100.00
24858;BME280;12935;50.782;6.074;2023-12-22T02:41:13;98331.00;;;6.12;100.00
24858;BME280;12935;50.782;6.074;2023-12-22T02:43:39;98331.72;;;6.26;100.00
24858;BME280;12935;50.782;6.074;2023-12-22T02:46:04;98315.00;;;6.39;100.00
24858;BME280;12935;50.782;6.074;2023-12-22T02:48:29;98311.84;;;6.51;100.00
24858;BME280;12935;50.782;6.074;2023-12-22T02:50:55;98307.94;;;6.55;100.00
24858;BME280;12935;50.782;6.074;2023-12-22T02:53:20;98317.94;;;6.69;100.00
24858;BME280;12935;50.782;6.074;2023-12-22T02:55:45;98339.66;;;6.76;100.00
24858;BME280;12935;50.782;6.074;2023-12-22T02:58:10;98332.28;;;6.77;100.00
24858;BME280;12935;50.782;6.074;2023-12-22T03:00:36;98344.72;;;6.67;100.00
24858;BME280;12935;50.782;6.074;2023-12-22T03:03:01;98344.38;;;6.58;100.00
24858;BME280;12935;50.782;6.074;2023-12-22T03:05:26;98352.25;;;6.20;100.00
24858;BME280;12935;50.782;6.074;2023-12-22T03:07:52;98351.91;;;6.01;100.00
24858;BME280;12935;50.782;6.074;2023-12-22T03:10:17;98347.69;;;5.82;100.00
24858;BME280;12935;50.782;6.074;2023-12-22T03:12:42;98353.09;;;5.75;100.00
24858;BME280;12935;50.782;6.074;2023-12-22T03:15:08;98351.16;;;5.75;100.00
24858;BME280;12935;50.782;6.074;2023-12-22T03:17:33;98351.56;;;5.74;100.00
24858;BME280;12935;50.782;6.074;2023-12-22T03:19:58;98360.84;;;5.80;100.00
24858;BME280;12935;50.782;6.074;2023-12-22T03:22:24;98347.66;;;5.85;100.00
24858;BME280;12935;50.782;6.074;2023-12-22T03:24:49;98354.25;;;5.84;100.00
24858;BME280;12935;50.782;6.074;2023-12-22T03:27:14;98346.50;;;5.86;100.00
24858;BME280;12935;50.782;6.074;2023-12-22T03:29:42;98339.94;;;5.94;100.00
24858;BME280;12935;50.782;6.074;2023-12-22T03:32:07;98351.94;;;5.97;100.00
24858;BME280;12935;50.782;6.074;2023-12-22T03:34:33;98358.50;;;5.99;100.00
24858;BME280;12935;50.782;6.074;2023-12-22T03:36:58;98356.22;;;5.98;100.00
24858;BME280;12935;50.782;6.074;2023-12-22T03:39:23;98357.00;;;5.95;100.00
24858;BME280;12935;50.782;6.074;2023-12-22T03:41:48;98369.75;;;6.02;100.00
24858;BME280;12935;50.782;6.074;2023-12-22T03:44:14;98367.75;;;6.16;100.00
24858;BME280;12935;50.782;6.074;2023-12-22T03:46:39;98344.91;;;6.24;100.00
24858;BME280;12935;50.782;6.074;2023-12-22T03:49:04;98352.59;;;6.37;100.00
24858;BME280;12935;50.782;6.074;2023-12-22T03:51:30;98354.09;;;6.48;100.00
24858;BME280;12935;50.782;6.074;2023-12-22T03:53:55;98332.38;;;6.55;100.00
24858;BME280;12935;50.782;6.074;2023-12-22T03:56:20;98326.91;;;6.62;100.00
24858;BME280;12935;50.782;6.074;2023-12-22T03:58:45;98323.00;;;6.67;100.00
24858;BME280;12935;50.782;6.074;2023-12-22T04:01:14;98329.59;;;6.69;100.00
24858;BME280;12935;50.782;6.074;2023-12-22T04:03:39;98327.25;;;6.72;100.00
24858;BME280;12935;50.782;6.074;2023-12-22T04:06:05;98321.41;;;6.77;100.00
24858;BME280;12935;50.782;6.074;2023-12-22T04:08:30;98332.28;;;6.73;100.00
24858;BME280;12935;50.782;6.074;2023-12-22T04:10:55;98328.00;;;6.76;100.00
24858;BME280;12935;50.782;6.074;2023-12-22T04:13:21;98354.00;;;6.77;100.00
24858;BME280;12935;50.782;6.074;2023-12-22T04:15:46;98338.09;;;6.72;100.00
24858;BME280;12935;50.782;6.074;2023-12-22T04:18:11;98352.84;;;6.67;100.00
24858;BME280;12935;50.782;6.074;2023-12-22T04:20:36;98356.34;;;6.67;100.00
24858;BME280;12935;50.782;6.074;2023-12-22T04:23:02;98351.31;;;6.66;100.00
24858;BME280;12935;50.782;6.074;2023-12-22T04:25:27;98362.16;;;6.69;100.00
24858;BME280;12935;50.782;6.074;2023-12-22T04:27:52;98359.41;;;6.77;100.00
24858;BME280;12935;50.782;6.074;2023-12-22T04:30:18;98370.25;;;6.80;100.00
24858;BME280;12935;50.782;6.074;2023-12-22T04:32:43;98359.34;;;6.87;100.00
24858;BME280;12935;50.782;6.074;2023-12-22T04:35:08;98363.94;;;6.97;100.00
24858;BME280;12935;50.782;6.074;2023-12-22T04:37:34;98365.09;;;6.96;100.00
24858;BME280;12935;50.782;6.074;2023-12-22T04:39:59;98366.28;;;6.95;100.00
24858;BME280;12935;50.782;6.074;2023-12-22T04:42:24;98374.81;;;6.97;100.00
24858;BME280;12935;50.782;6.074;2023-12-22T04:44:53;98366.25;;;7.02;100.00
24858;BME280;12935;50.782;6.074;2023-12-22T04:47:19;98359.25;;;7.05;100.00
24858;BME280;12935;50.782;6.074;2023-12-22T04:49:44;98371.63;;;7.10;100.00
24858;BME280;12935;50.782;6.074;2023-12-22T04:52:11;98373.22;;;7.07;100.00
24858;BME280;12935;50.782;6.074;2023-12-22T04:54:37;98385.25;;;7.06;100.00
24858;BME280;12935;50.782;6.074;2023-12-22T04:57:03;98389.50;;;7.07;100.00
24858;BME280;12935;50.782;6.074;2023-12-22T04:59:28;98397.22;;;7.12;100.00
24858;BME280;12935;50.782;6.074;2023-12-22T05:01:53;98391.44;;;7.07;100.00
24858;BME280;12935;50.782;6.074;2023-12-22T05:04:19;98393.72;;;7.12;100.00
24858;BME280;12935;50.782;6.074;2023-12-22T05:06:44;98410.78;;;7.16;100.00
24858;BME280;12935;50.782;6.074;2023-12-22T05:09:10;98404.59;;;7.12;100.00
24858;BME280;12935;50.782;6.074;2023-12-22T05:11:36;98408.06;;;7.16;100.00
24858;BME280;12935;50.782;6.074;2023-12-22T05:14:01;98396.03;;;7.17;100.00
24858;BME280;12935;50.782;6.074;2023-12-22T05:16:26;98396.81;;;7.17;100.00
24858;BME280;12935;50.782;6.074;2023-12-22T05:18:53;98402.63;;;7.19;100.00
24858;BME280;12935;50.782;6.074;2023-12-22T05:21:18;98403.00;;;7.21;100.00
24858;BME280;12935;50.782;6.074;2023-12-22T05:23:43;98403.41;;;7.20;100.00
24858;BME280;12935;50.782;6.074;2023-12-22T05:26:09;98395.66;;;7.15;100.00
24858;BME280;12935;50.782;6.074;2023-12-22T05:28:34;98405.75;;;7.11;100.00
24858;BME280;12935;50.782;6.074;2023-12-22T05:30:59;98396.50;;;7.04;100.00
24858;BME280;12935;50.782;6.074;2023-12-22T05:33:24;98411.28;;;6.96;100.00
24858;BME280;12935;50.782;6.074;2023-12-22T05:35:51;98417.53;;;6.90;100.00
24858;BME280;12935;50.782;6.074;2023-12-22T05:38:17;98400.47;;;6.82;100.00
24858;BME280;12935;50.782;6.074;2023-12-22T05:40:42;98404.78;;;6.76;100.00
24858;BME280;12935;50.782;6.074;2023-12-22T05:43:07;98406.72;;;6.76;100.00
24858;BME280;12935;50.782;6.074;2023-12-22T05:45:32;98400.88;;;6.77;100.00
24858;BME280;12935;50.782;6.074;2023-12-22T05:47:58;98395.09;;;6.75;100.00
24858;BME280;12935;50.782;6.074;2023-12-22T05:50:23;98394.28;;;6.78;100.00
24858;BME280;12935;50.782;6.074;2023-12-22T05:52:48;98398.53;;;6.86;100.00
24858;BME280;12935;50.782;6.074;2023-12-22T05:55:15;98399.69;;;6.85;100.00
24858;BME280;12935;50.782;6.074;2023-12-22T05:57:40;98392.34;;;6.82;100.00
24858;BME280;12935;50.782;6.074;2023-12-22T06:00:06;98405.09;;;6.92;100.00
24858;BME280;12935;50.782;6.074;2023-12-22T06:02:33;98400.41;;;6.93;100.00
24858;BME280;12935;50.782;6.074;2023-12-22T06:04:58;98400.78;;;6.98;100.00
24858;BME280;12935;50.782;6.074;2023-12-22T06:07:24;98396.50;;;7.01;100.00
24858;BME280;12935;50.782;6.074;2023-12-22T06:09:49;98400.00;;;7.05;100.00
24858;BME280;12935;50.782;6.074;2023-12-22T06:12:14;98390.28;;;7.04;100.00
24858;BME280;12935;50.782;6.074;2023-12-22T06:14:39;98389.53;;;7.03;100.00
24858;BME280;12935;50.782;6.074;2023-12-22T06:17:05;98397.28;;;7.05;100.00
24858;BME280;12935;50.782;6.074;2023-12-22T06:19:30;98400.38;;;7.03;100.00
24858;BME280;12935;50.782;6.074;2023-12-22T06:21:56;98394.19;;;6.99;100.00
24858;BME280;12935;50.782;6.074;2023-12-22T06:24:22;98399.63;;;7.03;100.00
24858;BME280;12935;50.782;6.074;2023-12-22T06:26:48;98411.63;;;7.06;100.00
24858;BME280;12935;50.782;6.074;2023-12-22T06:29:13;98408.53;;;7.07;100.00
24858;BME280;12935;50.782;6.074;2023-12-22T06:31:39;98410.06;;;7.08;100.00
24858;BME280;12935;50.782;6.074;2023-12-22T06:34:04;98415.47;;;7.12;100.00
24858;BME280;12935;50.782;6.074;2023-12-22T06:36:30;98424.78;;;7.11;100.00
24858;BME280;12935;50.782;6.074;2023-12-22T06:38:55;98427.09;;;7.09;100.00
24858;BME280;12935;50.782;6.074;2023-12-22T06:41:30;98408.53;;;7.07;100.00
24858;BME280;12935;50.782;6.074;2023-12-22T06:43:57;98420.19;;;7.00;100.00
24858;BME280;12935;50.782;6.074;2023-12-22T06:46:24;98428.31;;;7.00;100.00
24858;BME280;12935;50.782;6.074;2023-12-22T06:48:53;98408.94;;;6.95;100.00
24858;BME280;12935;50.782;6.074;2023-12-22T06:53:44;98426.81;;;6.92;100.00
24858;BME280;12935;50.782;6.074;2023-12-22T06:56:17;98418.63;;;6.99;100.00
24858;BME280;12935;50.782;6.074;2023-12-22T06:58:43;98419.41;;;7.03;100.00
24858;BME280;12935;50.782;6.074;2023-12-22T07:01:08;98425.22;;;7.06;100.00
24858;BME280;12935;50.782;6.074;2023-12-22T07:03:33;98425.22;;;7.02;100.00
24858;BME280;12935;50.782;6.074;2023-12-22T07:05:59;98425.59;;;7.08;100.00
24858;BME280;12935;50.782;6.074;2023-12-22T07:08:24;98433.38;;;6.98;100.00
24858;BME280;12935;50.782;6.074;2023-12-22T07:10:50;98433.38;;;6.98;100.00
24858;BME280;12935;50.782;6.074;2023-12-22T07:13:15;98428.34;;;6.93;100.00
24858;BME280;12935;50.782;6.074;2023-12-22T07:15:40;98426.06;;;6.92;100.00
24858;BME280;12935;50.782;6.074;2023-12-22T07:18:06;98428.38;;;6.90;100.00
24858;BME280;12935;50.782;6.074;2023-12-22T07:20:31;98449.34;;;6.82;100.00
24858;BME280;12935;50.782;6.074;2023-12-22T07:22:56;98435.75;;;6.86;100.00
24858;BME280;12935;50.782;6.074;2023-12-22T07:25:22;98439.63;;;6.92;100.00
24858;BME280;12935;50.782;6.074;2023-12-22T07:27:47;98433.78;;;6.93;100.00
24858;BME280;12935;50.782;6.074;2023-12-22T07:30:13;98438.44;;;6.93;100.00
24858;BME280;12935;50.782;6.074;2023-12-22T07:32:42;98439.97;;;6.97;100.00
24858;BME280;12935;50.782;6.074;2023-12-22T07:35:08;98448.13;;;6.97;100.00
24858;BME280;12935;50.782;6.074;2023-12-22T07:37:35;98436.50;;;6.93;100.00
24858;BME280;12935;50.782;6.074;2023-12-22T07:40:00;98440.75;;;6.98;100.00
24858;BME280;12935;50.782;6.074;2023-12-22T07:42:26;98440.38;;;6.96;100.00
24858;BME280;12935;50.782;6.074;2023-12-22T07:44:51;98435.00;;;6.85;100.00
24858;BME280;12935;50.782;6.074;2023-12-22T07:47:16;98443.88;;;6.93;100.00
24858;BME280;12935;50.782;6.074;2023-12-22T07:49:41;98443.47;;;6.98;100.00
24858;BME280;12935;50.782;6.074;2023-12-22T07:52:07;98453.56;;;6.97;100.00
24858;BME280;12935;50.782;6.074;2023-12-22T07:54:32;98441.13;;;6.96;100.00
24858;BME280;12935;50.782;6.074;2023-12-22T07:56:58;98439.97;;;7.01;100.00
24858;BME280;12935;50.782;6.074;2023-12-22T07:59:23;98450.81;;;7.04;100.00
24858;BME280;12935;50.782;6.074;2023-12-22T08:01:49;98433.75;;;7.00;100.00
24858;BME280;12935;50.782;6.074;2023-12-22T08:04:15;98448.09;;;7.04;100.00
24858;BME280;12935;50.782;6.074;2023-12-22T08:06:40;98437.19;;;7.12;100.00
24858;BME280;12935;50.782;6.074;2023-12-22T08:09:05;98446.91;;;7.09;100.00
24858;BME280;12935;50.782;6.074;2023-12-22T08:11:31;98432.91;;;7.11;100.00
24858;BME280;12935;50.782;6.074;2023-12-22T08:13:56;98438.72;;;7.16;100.00
24858;BME280;12935;50.782;6.074;2023-12-22T08:16:21;98439.47;;;7.20;100.00
24858;BME280;12935;50.782;6.074;2023-12-22T08:18:46;98439.50;;;7.17;100.00
24858;BME280;12935;50.782;6.074;2023-12-22T08:21:13;98425.13;;;7.20;100.00
24858;BME280;12935;50.782;6.074;2023-12-22T08:23:39;98424.75;;;7.21;100.00
24858;BME280;12935;50.782;6.074;2023-12-22T08:26:04;98422.78;;;7.22;100.00
24858;BME280;12935;50.782;6.074;2023-12-22T08:28:29;98427.06;;;7.23;100.00
24858;BME280;12935;50.782;6.074;2023-12-22T08:30:54;98426.28;;;7.22;100.00
24858;BME280;12935;50.782;6.074;2023-12-22T08:33:20;98428.19;;;7.25;100.00
24858;BME280;12935;50.782;6.074;2023-12-22T08:35:45;98437.88;;;7.26;100.00
24858;BME280;12935;50.782;6.074;2023-12-22T08:38:10;98432.78;;;7.35;100.00
24858;BME280;12935;50.782;6.074;2023-12-22T08:40:38;98447.94;;;7.36;100.00
24858;BME280;12935;50.782;6.074;2023-12-22T08:43:03;98442.50;;;7.36;100.00
24858;BME280;12935;50.782;6.074;2023-12-22T08:45:30;98447.16;;;7.36;100.00
24858;BME280;12935;50.782;6.074;2023-12-22T08:47:56;98438.56;;;7.41;100.00
24858;BME280;12935;50.782;6.074;2023-12-22T08:50:21;98433.56;;;7.39;100.00
24858;BME280;12935;50.782;6.074;2023-12-22T08:52:47;98428.50;;;7.38;100.00
24858;BME280;12935;50.782;6.074;2023-12-22T08:55:12;98426.56;;;7.38;100.00
24858;BME280;12935;50.782;6.074;2023-12-22T08:57:39;98417.25;;;7.39;100.00
24858;BME280;12935;50.782;6.074;2023-12-22T09:00:05;98415.69;;;7.38;100.00
24858;BME280;12935;50.782;6.074;2023-12-22T09:02:30;98407.91;;;7.40;100.00
24858;BME280;12935;50.782;6.074;2023-12-22T09:04:55;98420.75;;;7.36;100.00
24858;BME280;12935;50.782;6.074;2023-12-22T09:07:21;98416.13;;;7.33;100.00
24858;BME280;12935;50.782;6.074;2023-12-22T09:09:47;98407.19;;;7.33;100.00
24858;BME280;12935;50.782;6.074;2023-12-22T09:12:13;98399.41;;;7.38;100.00
24858;BME280;12935;50.782;6.074;2023-12-22T09:14:38;98407.56;;;7.35;100.00
24858;BME280;12935;50.782;6.074;2023-12-22T09:17:03;98394.78;;;7.28;100.00
24858;BME280;12935;50.782;6.074;2023-12-22T09:19:28;98391.25;;;7.35;100.00
24858;BME280;12935;50.782;6.074;2023-12-22T09:21:56;98390.88;;;7.33;100.00
24858;BME280;12935;50.782;6.074;2023-12-22T09:24:22;98386.94;;;7.41;100.00
24858;BME280;12935;50.782;6.074;2023-12-22T09:26:47;98387.72;;;7.42;100.00
24858;BME280;12935;50.782;6.074;2023-12-22T09:29:12;98381.09;;;7.43;100.00
24858;BME280;12935;50.782;6.074;2023-12-22T09:31:38;98386.44;;;7.57;100.00
24858;BME280;12935;50.782;6.074;2023-12-22T09:34:03;98374.06;;;7.52;100.00
24858;BME280;12935;50.782;6.074;2023-12-22T09:36:28;98373.69;;;7.50;100.00
24858;BME280;12935;50.782;6.074;2023-12-22T09:38:53;98363.97;;;7.53;100.00
24858;BME280;12935;50.782;6.074;2023-12-22T09:41:19;98356.56;;;7.53;100.00
24858;BME280;12935;50.782;6.074;2023-12-22T09:43:46;98360.41;;;7.59;100.00
24858;BME280;12935;50.782;6.074;2023-12-22T09:46:14;98358.00;;;7.68;100.00
24858;BME280;12935;50.782;6.074;2023-12-22T09:48:41;98350.16;;;7.74;100.00
24858;BME280;12935;50.782;6.074;2023-12-22T09:51:07;98362.66;;;7.68;100.00
24858;BME280;12935;50.782;6.074;2023-12-22T09:53:33;98363.91;;;7.56;100.00
24858;BME280;12935;50.782;6.074;2023-12-22T09:55:59;98363.47;;;7.65;100.00
24858;BME280;12935;50.782;6.074;2023-12-22T09:58:25;98370.06;;;7.67;100.00
24858;BME280;12935;50.782;6.074;2023-12-22T10:00:51;98362.41;;;7.52;100.00
24858;BME280;12935;50.782;6.074;2023-12-22T10:03:19;98356.84;;;7.66;100.00
24858;BME280;12935;50.782;6.074;2023-12-22T10:05:45;98352.59;;;7.65;100.00
24858;BME280;12935;50.782;6.074;2023-12-22T10:08:11;98358.00;;;7.68;100.00
24858;BME280;12935;50.782;6.074;2023-12-22T10:10:39;98362.28;;;7.66;100.00
24858;BME280;12935;50.782;6.074;2023-12-22T10:13:05;98361.91;;;7.64;100.00
24858;BME280;12935;50.782;6.074;2023-12-22T10:15:41;98353.00;;;7.63;100.00
24858;BME280;12935;50.782;6.074;2023-12-22T10:18:07;98359.50;;;7.73;100.00
24858;BME280;12935;50.782;6.074;2023-12-22T10:20:32;98360.66;;;7.75;100.00
24858;BME280;12935;50.782;6.074;2023-12-22T10:22:58;98352.47;;;7.79;100.00
24858;BME280;12935;50.782;6.074;2023-12-22T10:25:27;98353.19;;;7.87;100.00
24858;BME280;12935;50.782;6.074;2023-12-22T10:27:54;98336.09;;;7.86;100.00
24858;BME280;12935;50.782;6.074;2023-12-22T10:30:20;98349.59;;;7.93;100.00
24858;BME280;12935;50.782;6.074;2023-12-22T10:32:46;98349.59;;;7.93;100.00
24858;BME280;12935;50.782;6.074;2023-12-22T10:35:11;98351.53;;;7.96;100.00
24858;BME280;12935;50.782;6.074;2023-12-22T10:37:37;98345.22;;;8.03;100.00
24858;BME280;12935;50.782;6.074;2023-12-22T10:40:08;98328.88;;;8.06;100.00
24858;BME280;12935;50.782;6.074;2023-12-22T10:42:34;98341.25;;;8.11;100.00
24858;BME280;12935;50.782;6.074;2023-12-22T10:45:00;98344.25;;;8.20;100.00
24858;BME280;12935;50.782;6.074;2023-12-22T10:47:25;98343.19;;;8.14;100.00
24858;BME280;12935;50.782;6.074;2023-12-22T10:49:51;98345.81;;;8.21;100.00
24858;BME280;12935;50.782;6.074;2023-12-22T10:52:17;98350.47;;;8.21;100.00
24858;BME280;12935;50.782;6.074;2023-12-22T10:54:43;98358.25;;;8.22;100.00
24858;BME280;12935;50.782;6.074;2023-12-22T10:57:10;98346.19;;;8.23;100.00
24858;BME280;12935;50.782;6.074;2023-12-22T10:59:39;98330.72;;;8.17;100.00
24858;BME280;12935;50.782;6.074;2023-12-22T11:02:07;98324.03;;;8.21;100.00
24858;BME280;12935;50.782;6.074;2023-12-22T11:04:37;98320.56;;;8.21;100.00
24858;BME280;12935;50.782;6.074;2023-12-22T11:07:03;98329.81;;;8.27;100.00
24858;BME280;12935;50.782;6.074;2023-12-22T11:09:31;98319.63;;;8.34;100.00
24858;BME280;12935;50.782;6.074;2023-12-22T11:11:57;98318.81;;;8.37;100.00
24858;BME280;12935;50.782;6.074;2023-12-22T11:14:23;98327.00;;;8.37;100.00
24858;BME280;12935;50.782;6.074;2023-12-22T11:16:49;98337.84;;;8.41;100.00
24858;BME280;12935;50.782;6.074;2023-12-22T11:19:18;98327.34;;;8.39;100.00
24858;BME280;12935;50.782;6.074;2023-12-22T11:21:44;98329.34;;;8.35;100.00
24858;BME280;12935;50.782;6.074;2023-12-22T11:24:11;98332.84;;;8.36;100.00
24858;BME280;12935;50.782;6.074;2023-12-22T11:26:38;98333.91;;;8.46;100.00
24858;BME280;12935;50.782;6.074;2023-12-22T11:29:06;98337.38;;;8.50;100.00
24858;BME280;12935;50.782;6.074;2023-12-22T11:31:32;98347.81;;;8.51;100.00
24858;BME280;12935;50.782;6.074;2023-12-22T11:33:58;98336.16;;;8.51;100.00
24858;BME280;12935;50.782;6.074;2023-12-22T11:36:24;98347.72;;;8.62;100.00
24858;BME280;12935;50.782;6.074;2023-12-22T11:38:50;98352.34;;;8.65;100.00
24858;BME280;12935;50.782;6.074;2023-12-22T11:41:19;98345.28;;;8.67;100.00
24858;BME280;12935;50.782;6.074;2023-12-22T11:43:47;98337.47;;;8.69;100.00
24858;BME280;12935;50.782;6.074;2023-12-22T11:46:16;98350.69;;;8.71;100.00
24858;BME280;12935;50.782;6.074;2023-12-22T11:48:48;98344.03;;;8.75;100.00
24858;BME280;12935;50.782;6.074;2023-12-22T11:51:15;98355.25;;;8.81;100.00
24858;BME280;12935;50.782;6.074;2023-12-22T11:53:40;98348.19;;;8.84;100.00
24858;BME280;12935;50.782;6.074;2023-12-22T11:56:07;98348.97;;;8.84;100.00
24858;BME280;12935;50.782;6.074;2023-12-22T11:58:37;98336.88;;;8.85;100.00
24858;BME280;12935;50.782;6.074;2023-12-22T12:01:05;98349.81;;;8.81;100.00
24858;BME280;12935;50.782;6.074;2023-12-22T12:03:31;98354.03;;;8.82;100.00
24858;BME280;12935;50.782;6.074;2023-12-22T12:06:17;98338.53;;;8.79;100.00
24858;BME280;12935;50.782;6.074;2023-12-22T12:08:43;98347.41;;;8.83;100.00
24858;BME280;12935;50.782;6.074;2023-12-22T12:11:08;98335.34;;;8.84;100.00
24858;BME280;12935;50.782;6.074;2023-12-22T12:13:34;98343.22;;;8.78;100.00
24858;BME280;12935;50.782;6.074;2023-12-22T12:16:00;98357.25;;;8.77;100.00
24858;BME280;12935;50.782;6.074;2023-12-22T12:18:30;98338.53;;;8.79;100.00
24858;BME280;12935;50.782;6.074;2023-12-22T12:20:56;98338.91;;;8.81;100.00
24858;BME280;12935;50.782;6.074;2023-12-22T12:23:23;98330.81;;;8.74;100.00
24858;BME280;12935;50.782;6.074;2023-12-22T12:25:49;98323.88;;;8.69;100.00
24858;BME280;12935;50.782;6.074;2023-12-22T12:28:15;98306.75;;;8.69;100.00
24858;BME280;12935;50.782;6.074;2023-12-22T12:30:43;98321.91;;;8.70;100.00
24858;BME280;12935;50.782;6.074;2023-12-22T12:33:09;98314.56;;;8.67;100.00
24858;BME280;12935;50.782;6.074;2023-12-22T12:35:35;98313.38;;;8.68;100.00
24858;BME280;12935;50.782;6.074;2023-12-22T12:38:03;98300.28;;;8.59;100.00
24858;BME280;12935;50.782;6.074;2023-12-22T12:40:28;98311.06;;;8.66;100.00
24858;BME280;12935;50.782;6.074;2023-12-22T12:43:00;98306.88;;;8.62;100.00
24858;BME280;12935;50.782;6.074;2023-12-22T12:45:26;98308.03;;;8.61;100.00
24858;BME280;12935;50.782;6.074;2023-12-22T12:47:55;98311.94;;;8.60;100.00
24858;BME280;12935;50.782;6.074;2023-12-22T12:50:22;98292.94;;;8.56;100.00
24858;BME280;12935;50.782;6.074;2023-12-22T12:52:48;98311.19;;;8.59;100.00
24858;BME280;12935;50.782;6.074;2023-12-22T12:55:17;98297.97;;;8.58;100.00
24858;BME280;12935;50.782;6.074;2023-12-22T12:57:43;98300.66;;;8.61;100.00